BERRYESSA (BER)

Elevation: 456' · PUTAH CR basin · Operator: US Bureau of Reclamation

Provisional data, subject to change.
Query executed Friday at 20:21:32   clock

Select a sensor type for a plot of data.
Note: Reservoir Flows are daily averages.

Earlier

Date RES ELE    STORAGE    OUTFLOW    INFLOW    PPT INC   
 FEET   AF   CFS   CFS   INCHES  
03/31/2016 410.95 1044695 179 497 0.00
04/01/2016 410.97 1045014 163 403 0.00
04/02/2016 410.98 1045174 160 315 0.00
04/03/2016 411.00 1045493 160 395 0.00
04/04/2016 411.03 1045972 160 485 0.00
04/05/2016 411.03 1045972 160 239 0.00
04/06/2016 411.04 1046131 184 369 0.00
04/07/2016 411.04 1046131 200 263 0.00
04/08/2016 411.05 1046291 207 356 0.00
04/09/2016 411.06 1046450 210 348 0.13
04/10/2016 411.07 1046610 210 307 0.39
04/11/2016 411.07 1046610 214 214 0.03
04/12/2016 411.08 1046770 224 331 0.00
04/13/2016 411.04 1046131 234 -35 0.00
04/14/2016 411.06 1046450 258 514 0.09
04/15/2016 411.02 1045812 298 2 0.00
04/16/2016 411.01 1045652 317 331 0.00
04/17/2016 410.99 1045333 341 259 0.00
04/18/2016 410.96 1044855 359 181 0.00
04/19/2016 410.93 1044376 373 206 0.00
04/20/2016 410.89 1043738 385 131 0.00
04/21/2016 410.88 1043578 391 378 0.00
04/22/2016 410.84 1042941 394 126 0.25
04/23/2016 410.82 1042622 379 265 0.17
04/24/2016 410.80 1042303 376 267 0.00
04/25/2016 -- -- -- -- --
04/26/2016 -- -- -- -- --
04/27/2016 -- -- -- -- --
04/28/2016 -- -- -- -- --
04/29/2016 -- -- -- -- --

Later | Latest

Warning! This data is preliminary and subject to revision.

Show BER Map | Plot BER Data | 1 Month BER Data | Real-Time BER Data | BER Info